LIPX/VRN METAR and TAF weather

Enter ICAO airport designator
Station Type Date Time Source
LIPX METAR 2022/11/30 17:20 UTC NOAA

LIPX 301720Z 29004KT 9999 SCT070 08/03 Q1017


Station Type Date Time Source
LIPX Decoded METAR 2022/11/30 17:20 UTC NOAA

Verona / Villafranca, Italy (LIPX) 45-23N 010-52E 68M
Nov 30, 2022 - 12:20 PM EST / 2022.11.30 1720 UTC
Wind: from the WNW (290 degrees) at 5 MPH (4 KT):0
Visibility: greater than 7 mile(s):0
Sky conditions: partly cloudy
Temperature: 46 F (8 C)
Dew Point: 37 F (3 C)
Relative Humidity: 70%
Pressure (altimeter): 30.03 in. Hg (1017 hPa)
ob: LIPX 301720Z 29004KT 9999 SCT070 08/03 Q1017
cycle: 17

Station Type Date Time Source
LIPX TAF 2022/11/30 18:21 UTC NOAA

TAF LIPX 301700Z 3018/0118 29004KT 9999 SCT060

Example: see airport list